Time;durP1;ratioP1;P1;durP2;ratioP2;P2;SDS_P1;SDS_P2;PMS_P1;PMS_P2;Temp;Humidity;BMP_temperature;BMP_pressure;BME280_temperature;BME280_humidity;BME280_pressure;Samples;Min_cycle;Max_cycle;Signal;HPM_P1;HPM_P2
2021/12/26 00:01:22;;;;;;;5.68;4.20;;;7.40;90.70;;;;;;5052477;28;20381;-74
2021/12/26 00:03:48;;;;;;;5.22;3.50;;;7.40;90.70;;;;;;5034608;28;20028;-79
2021/12/26 00:06:21;;;;;;;4.32;3.22;;;7.40;90.60;;;;;;5052365;28;20024;-76
2021/12/26 00:08:49;;;;;;;4.78;3.42;;;7.40;90.50;;;;;;5052374;28;20044;-77
2021/12/26 00:11:15;;;;;;;3.70;3.10;;;7.50;90.60;;;;;;5052565;28;20040;-74
2021/12/26 00:13:41;;;;;;;4.75;3.50;;;7.50;90.50;;;;;;5052382;28;20025;-76
2021/12/26 00:16:07;;;;;;;7.53;3.08;;;7.50;90.40;;;;;;5034610;28;20033;-74
2021/12/26 00:18:35;;;;;;;4.15;3.15;;;7.50;90.40;;;;;;5052418;28;20017;-74
2021/12/26 00:21:02;;;;;;;6.60;4.97;;;7.50;90.40;;;;;;5052680;28;20083;-77
2021/12/26 00:23:27;;;;;;;9.02;6.22;;;7.50;90.40;;;;;;5052410;28;20025;-77
2021/12/26 00:25:54;;;;;;;9.73;6.78;;;7.50;90.30;;;;;;5052298;28;20536;-75
2021/12/26 00:28:20;;;;;;;11.10;7.80;;;7.50;90.40;;;;;;5052192;28;20033;-74
2021/12/26 00:30:46;;;;;;;12.27;9.00;;;7.50;90.50;;;;;;5034277;28;20120;-74
2021/12/26 00:33:12;;;;;;;14.05;9.43;;;7.50;90.80;;;;;;5052195;28;20033;-74
2021/12/26 00:35:39;;;;;;;15.70;10.18;;;7.40;90.80;;;;;;5052309;28;20021;-74
2021/12/26 00:38:04;;;;;;;14.70;9.25;;;7.40;91.00;;;;;;5053886;28;20489;-74
2021/12/26 00:40:32;;;;;;;15.40;10.30;;;7.30;91.30;;;;;;5055571;28;20025;-74
2021/12/26 00:42:58;;;;;;;20.00;10.85;;;7.30;91.30;;;;;;5055765;28;20024;-75
2021/12/26 00:45:23;;;;;;;13.25;9.85;;;7.30;91.20;;;;;;5055754;28;20017;-74
2021/12/26 00:47:49;;;;;;;19.63;11.75;;;7.20;91.00;;;;;;5055575;28;20094;-75
2021/12/26 00:50:22;;;;;;;21.13;12.00;;;7.10;91.50;;;;;;5055643;28;20024;-72
2021/12/26 00:52:48;;;;;;;20.02;11.93;;;7.10;92.00;;;;;;5055602;28;20028;-72
2021/12/26 00:55:14;;;;;;;16.40;11.25;;;7.10;92.10;;;;;;5055415;28;20029;-72
2021/12/26 00:57:40;;;;;;;17.85;11.13;;;7.10;92.00;;;;;;5055444;28;20435;-72
2021/12/26 01:00:11;;;;;;;20.45;12.23;;;7.10;92.00;;;;;;5055406;28;20032;-73
2021/12/26 01:02:37;;;;;;;19.58;11.75;;;7.10;92.00;;;;;;5038049;28;20315;-72
2021/12/26 01:05:06;;;;;;;21.65;12.90;;;7.20;92.00;;;;;;5055313;28;20485;-73
2021/12/26 01:10:04;;;;;;;22.05;12.57;;;7.20;92.00;;;;;;5055329;28;20366;-72
2021/12/26 01:12:30;;;;;;;24.60;13.25;;;7.30;92.20;;;;;;5055217;28;20025;-72
2021/12/26 01:14:57;;;;;;;22.17;12.75;;;7.30;92.10;;;;;;5054980;28;20090;-72
2021/12/26 01:17:25;;;;;;;36.35;14.82;;;7.30;92.00;;;;;;5055407;28;20168;-72
2021/12/26 01:19:53;;;;;;;26.50;14.30;;;7.30;91.80;;;;;;5055294;28;20393;-72
2021/12/26 01:22:20;;;;;;;22.40;12.38;;;7.20;92.00;;;;;;5055202;28;20108;-72
2021/12/26 01:24:48;;;;;;;26.33;13.65;;;7.20;92.00;;;;;;5054965;28;20025;-73
2021/12/26 01:27:14;;;;;;;30.80;15.02;;;7.20;92.10;;;;;;5055456;28;20021;-72
2021/12/26 01:29:41;;;;;;;26.90;14.27;;;7.30;92.20;;;;;;5055144;28;20033;-73
2021/12/26 01:32:07;;;;;;;27.02;14.30;;;7.30;92.20;;;;;;5054982;28;20114;-73
2021/12/26 01:34:33;;;;;;;23.60;13.35;;;7.30;92.20;;;;;;5055649;28;20063;-73
2021/12/26 01:36:59;;;;;;;23.05;12.23;;;7.30;92.20;;;;;;5054725;28;20025;-73
2021/12/26 01:39:25;;;;;;;22.58;13.23;;;7.30;92.10;;;;;;5054658;28;20036;-73
2021/12/26 01:41:52;;;;;;;20.42;12.93;;;7.30;92.10;;;;;;5054667;28;20052;-73
2021/12/26 01:44:18;;;;;;;18.70;11.23;;;7.40;91.90;;;;;;5054684;28;20044;-74
2021/12/26 01:46:45;;;;;;;17.33;11.07;;;7.40;91.30;;;;;;5054364;28;20021;-74
2021/12/26 01:49:15;;;;;;;17.70;11.57;;;7.30;91.20;;;;;;5053461;28;20029;-73
2021/12/26 01:51:43;;;;;;;16.27;10.52;;;7.30;91.30;;;;;;5054449;28;20217;-75
2021/12/26 01:54:11;;;;;;;15.95;11.00;;;7.30;91.30;;;;;;5054421;28;20100;-74
2021/12/26 01:56:38;;;;;;;18.70;11.68;;;7.30;91.40;;;;;;5054275;28;20021;-75
2021/12/26 01:59:06;;;;;;;16.55;9.93;;;7.40;91.30;;;;;;5054331;28;20564;-76
2021/12/26 02:01:32;;;;;;;17.73;10.63;;;7.30;91.10;;;;;;5054266;28;20116;-73
2021/12/26 02:03:59;;;;;;;16.95;11.55;;;7.40;91.10;;;;;;5054114;28;20025;-73
2021/12/26 02:06:25;;;;;;;20.83;11.80;;;7.40;91.00;;;;;;5054181;28;20048;-75
2021/12/26 02:08:51;;;;;;;17.38;11.05;;;7.40;91.00;;;;;;5054034;28;20065;-74
2021/12/26 02:11:17;;;;;;;19.05;11.52;;;7.40;91.00;;;;;;5054133;28;20427;-76
2021/12/26 02:13:43;;;;;;;16.00;10.30;;;7.40;90.90;;;;;;5053956;28;20040;-72
2021/12/26 02:16:10;;;;;;;17.45;10.75;;;7.40;90.80;;;;;;5036142;28;20048;-75
2021/12/26 02:18:36;;;;;;;20.73;11.18;;;7.40;90.70;;;;;;5053776;28;20021;-74
2021/12/26 02:28:47;;;;;;;19.73;11.23;;;7.50;90.50;;;;;;5053889;28;20029;-73
2021/12/26 02:31:15;;;;;;;17.08;8.70;;;7.40;90.40;;;;;;5053840;28;20027;-73
2021/12/26 02:33:40;;;;;;;23.50;12.32;;;7.50;90.50;;;;;;5053363;28;20067;-73
2021/12/26 02:36:07;;;;;;;26.08;12.95;;;7.40;90.40;;;;;;5053660;28;20056;-74
2021/12/26 02:38:33;;;;;;;26.33;12.93;;;7.40;90.40;;;;;;5053578;28;20036;-71
2021/12/26 02:40:59;;;;;;;22.98;12.45;;;7.40;90.50;;;;;;5053603;28;20025;-73
2021/12/26 02:43:27;;;;;;;23.90;12.65;;;7.40;90.40;;;;;;5061435;28;20025;-72
2021/12/26 02:45:53;;;;;;;30.95;14.50;;;7.40;90.70;;;;;;5061234;28;20028;-72
2021/12/26 02:48:19;;;;;;;28.63;15.65;;;7.40;90.60;;;;;;5054472;28;20435;-73
2021/12/26 02:50:47;;;;;;;27.30;14.23;;;7.40;90.70;;;;;;5053283;28;20021;-75
2021/12/26 02:53:20;;;;;;;27.40;13.55;;;7.30;91.00;;;;;;5053365;28;20089;-72
2021/12/26 02:55:49;;;;;;;27.48;12.95;;;7.40;91.10;;;;;;5053295;28;20025;-72
2021/12/26 02:58:15;;;;;;;26.00;13.15;;;7.30;91.00;;;;;;5053238;28;20079;-72
2021/12/26 03:00:48;;;;;;;27.70;14.10;;;7.30;91.10;;;;;;5052840;28;20051;-71
2021/12/26 03:03:14;;;;;;;29.35;15.07;;;7.30;91.20;;;;;;5053196;28;20125;-75
2021/12/26 03:05:43;;;;;;;29.42;15.18;;;7.20;91.60;;;;;;5053114;28;20504;-71
2021/12/26 03:08:16;;;;;;;29.98;14.95;;;7.20;91.70;;;;;;5053119;28;20043;-72
2021/12/26 03:10:42;;;;;;;29.27;13.90;;;7.30;91.90;;;;;;5052990;28;20029;-73
2021/12/26 03:13:09;;;;;;;25.45;13.90;;;7.30;91.90;;;;;;5053064;28;20033;-71
2021/12/26 03:15:37;;;;;;;40.35;16.25;;;7.30;92.00;;;;;;5053134;28;20033;-75
2021/12/26 03:18:04;;;;;;;31.00;14.95;;;7.30;92.00;;;;;;5035112;28;20025;-75
2021/12/26 03:20:34;;;;;;;27.90;14.13;;;7.30;92.00;;;;;;5053065;28;20025;-77
2021/12/26 03:23:01;;;;;;;29.98;14.80;;;7.30;92.00;;;;;;5052935;28;20076;-73
2021/12/26 03:25:29;;;;;;;47.63;16.67;;;7.30;91.90;;;;;;5053021;28;20056;-74
2021/12/26 03:27:55;;;;;;;32.85;15.27;;;7.30;91.70;;;;;;5052372;28;20033;-73
2021/12/26 03:30:24;;;;;;;31.10;15.68;;;7.30;91.60;;;;;;5052920;28;20033;-71
2021/12/26 03:32:52;;;;;;;30.75;15.15;;;7.30;91.70;;;;;;5052785;28;20029;-71
2021/12/26 03:35:20;;;;;;;25.65;13.73;;;7.30;91.90;;;;;;5052624;28;20057;-71
2021/12/26 03:37:46;;;;;;;28.45;14.73;;;7.30;92.00;;;;;;5052868;28;20162;-73
2021/12/26 03:40:12;;;;;;;29.88;15.27;;;7.30;92.00;;;;;;5052839;28;20067;-73
2021/12/26 03:42:38;;;;;;;30.02;14.45;;;7.30;92.10;;;;;;5052636;28;20393;-73
2021/12/26 03:45:05;;;;;;;32.20;16.50;;;7.30;92.00;;;;;;5052799;28;20028;-72
2021/12/26 03:47:32;;;;;;;30.40;15.93;;;7.30;92.00;;;;;;5052698;28;20035;-72
2021/12/26 03:49:58;;;;;;;30.70;14.73;;;7.30;91.80;;;;;;5052846;28;20021;-71
2021/12/26 03:52:25;;;;;;;30.02;15.13;;;7.30;91.80;;;;;;5052722;28;20023;-72
2021/12/26 03:54:51;;;;;;;28.35;13.65;;;7.30;92.00;;;;;;5052672;28;20055;-71
2021/12/26 03:57:17;;;;;;;33.22;15.98;;;7.30;91.80;;;;;;5052599;28;20025;-72
2021/12/26 03:59:43;;;;;;;32.72;16.35;;;7.30;91.80;;;;;;5052557;28;20050;-72
2021/12/26 04:02:09;;;;;;;25.77;14.10;;;7.40;91.70;;;;;;5052581;28;20036;-71
2021/12/26 04:04:34;;;;;;;30.00;14.77;;;7.30;91.60;;;;;;5052539;28;20497;-72
2021/12/26 04:07:00;;;;;;;28.98;14.80;;;7.30;91.50;;;;;;5052410;28;20029;-72
2021/12/26 04:09:25;;;;;;;30.38;13.90;;;7.30;91.40;;;;;;5052574;28;20025;-72
2021/12/26 04:11:51;;;;;;;30.23;15.68;;;7.20;91.40;;;;;;5052485;28;20462;-72
2021/12/26 04:14:17;;;;;;;29.45;15.57;;;7.30;91.70;;;;;;5056098;28;20484;-72
2021/12/26 04:16:43;;;;;;;29.25;15.27;;;7.30;91.70;;;;;;5056300;28;20434;-72
2021/12/26 04:19:08;;;;;;;27.60;15.35;;;7.20;91.60;;;;;;5056165;28;20025;-72
2021/12/26 04:21:35;;;;;;;28.77;14.95;;;7.30;91.70;;;;;;5056135;28;20021;-72
2021/12/26 04:24:02;;;;;;;26.00;14.88;;;7.30;91.60;;;;;;5056193;28;20114;-72
2021/12/26 04:26:28;;;;;;;26.80;15.95;;;7.20;91.50;;;;;;5056156;28;20021;-72
2021/12/26 04:28:53;;;;;;;27.48;15.10;;;7.30;91.60;;;;;;5055966;28;20542;-72
2021/12/26 04:31:19;;;;;;;26.52;15.50;;;7.20;91.50;;;;;;5056154;28;20029;-72
2021/12/26 04:33:46;;;;;;;24.92;15.02;;;7.30;91.50;;;;;;5055860;28;20041;-72
2021/12/26 04:36:13;;;;;;;21.70;13.75;;;7.30;91.40;;;;;;5056040;28;20053;-72
2021/12/26 04:38:39;;;;;;;28.20;15.70;;;7.20;91.30;;;;;;5038033;28;20385;-72
2021/12/26 04:41:06;;;;;;;25.33;14.80;;;7.20;91.20;;;;;;5055939;28;20041;-71
2021/12/26 04:43:35;;;;;;;22.23;13.02;;;7.20;91.00;;;;;;5055884;28;20045;-72
2021/12/26 04:46:05;;;;;;;24.77;14.70;;;7.20;91.10;;;;;;5055814;28;20027;-71
2021/12/26 04:48:31;;;;;;;21.17;12.55;;;7.20;91.20;;;;;;5037786;28;20128;-72
2021/12/26 04:50:56;;;;;;;21.50;12.18;;;7.20;91.30;;;;;;5055707;28;20057;-72
2021/12/26 04:53:22;;;;;;;21.05;12.70;;;7.20;91.20;;;;;;5055794;28;20029;-72
2021/12/26 04:55:47;;;;;;;17.85;11.95;;;7.20;91.20;;;;;;5055610;28;20025;-71
2021/12/26 04:58:14;;;;;;;17.80;11.68;;;7.20;91.10;;;;;;5055595;28;20504;-72
2021/12/26 05:00:39;;;;;;;19.05;12.48;;;7.30;91.10;;;;;;5055525;28;20370;-71
2021/12/26 05:03:07;;;;;;;24.23;14.07;;;7.20;90.90;;;;;;5055428;28;20021;-73
2021/12/26 05:05:33;;;;;;;20.35;13.77;;;7.30;91.00;;;;;;5055458;28;20033;-72
2021/12/26 05:07:59;;;;;;;18.77;12.27;;;7.30;90.90;;;;;;5055220;28;20039;-72
2021/12/26 05:10:28;;;;;;;16.80;11.35;;;7.20;90.70;;;;;;5055352;28;20025;-72
2021/12/26 05:12:56;;;;;;;15.65;10.32;;;7.30;90.80;;;;;;5055082;28;20033;-72
2021/12/26 05:15:21;;;;;;;14.88;9.65;;;7.30;91.50;;;;;;5055013;28;20410;-73
2021/12/26 05:17:49;;;;;;;13.25;9.27;;;7.30;90.60;;;;;;5055096;28;20107;-72
2021/12/26 05:20:18;;;;;;;11.75;8.13;;;7.30;90.50;;;;;;5055167;28;20070;-72
2021/12/26 05:22:44;;;;;;;13.10;8.60;;;7.30;90.40;;;;;;5054964;28;20108;-73
2021/12/26 05:25:10;;;;;;;13.82;8.60;;;7.30;90.40;;;;;;5054754;28;20087;-72
2021/12/26 05:27:36;;;;;;;15.02;9.13;;;7.30;90.30;;;;;;5054817;28;20036;-72
2021/12/26 05:30:07;;;;;;;11.45;7.95;;;7.30;90.00;;;;;;5055009;28;20074;-72
2021/12/26 05:32:32;;;;;;;10.75;7.50;;;7.30;90.10;;;;;;5054844;28;20124;-72
2021/12/26 05:34:58;;;;;;;11.00;7.45;;;7.30;90.10;;;;;;5054741;28;20120;-72
2021/12/26 05:37:24;;;;;;;10.60;7.47;;;7.20;90.00;;;;;;5054772;28;20404;-72
2021/12/26 05:39:50;;;;;;;11.85;8.02;;;7.30;90.10;;;;;;5054602;28;20025;-74
2021/12/26 05:42:16;;;;;;;10.23;7.57;;;7.30;91.00;;;;;;5054644;28;20478;-74
2021/12/26 05:44:45;;;;;;;11.05;7.78;;;7.30;90.20;;;;;;5054606;28;20029;-74
2021/12/26 05:47:12;;;;;;;13.38;8.82;;;7.30;90.20;;;;;;5054421;28;20071;-74
2021/12/26 05:49:38;;;;;;;15.10;9.55;;;7.30;90.10;;;;;;5054729;28;20033;-74
2021/12/26 05:52:04;;;;;;;13.77;9.25;;;7.30;90.10;;;;;;5054483;28;20043;-73
2021/12/26 05:54:29;;;;;;;13.40;8.85;;;7.30;90.10;;;;;;5054447;28;20496;-73
2021/12/26 05:56:55;;;;;;;13.63;8.55;;;7.30;90.10;;;;;;5054339;28;20030;-74
2021/12/26 05:59:20;;;;;;;14.68;9.60;;;7.30;90.10;;;;;;5054396;28;20036;-73
2021/12/26 06:01:46;;;;;;;12.73;8.57;;;7.30;90.10;;;;;;5054265;28;20040;-72
2021/12/26 06:04:12;;;;;;;14.73;9.13;;;7.20;90.00;;;;;;5054328;28;20029;-72
2021/12/26 06:06:38;;;;;;;14.90;9.30;;;7.20;90.10;;;;;;5054117;28;20074;-72
2021/12/26 06:09:04;;;;;;;13.77;9.30;;;7.30;90.30;;;;;;5054083;28;20496;-73
2021/12/26 06:11:29;;;;;;;15.23;9.70;;;7.30;90.30;;;;;;5054178;28;20017;-72
2021/12/26 06:13:55;;;;;;;13.88;9.55;;;7.30;90.30;;;;;;5053999;28;20393;-72
2021/12/26 06:16:21;;;;;;;17.70;10.20;;;7.20;90.10;;;;;;5054044;28;20024;-73
2021/12/26 06:18:46;;;;;;;15.00;9.75;;;7.20;90.20;;;;;;5053977;28;20064;-74
2021/12/26 06:21:12;;;;;;;15.52;9.63;;;7.20;90.40;;;;;;5053935;28;20098;-73
2021/12/26 06:23:37;;;;;;;13.05;8.68;;;7.20;90.50;;;;;;5053815;28;20036;-71
2021/12/26 06:26:03;;;;;;;10.70;7.38;;;7.20;90.50;;;;;;5053942;28;20053;-71
2021/12/26 06:28:29;;;;;;;9.38;5.97;;;7.20;90.50;;;;;;5053869;28;20073;-71
2021/12/26 06:30:54;;;;;;;10.68;7.05;;;7.30;90.60;;;;;;5053820;28;20107;-71
2021/12/26 06:33:20;;;;;;;10.38;6.50;;;7.20;90.40;;;;;;5053576;28;20083;-71
2021/12/26 06:35:45;;;;;;;10.18;6.72;;;7.20;90.40;;;;;;5053068;28;20036;-72
2021/12/26 06:38:11;;;;;;;11.43;7.82;;;7.20;90.40;;;;;;5053695;28;20044;-71
2021/12/26 06:40:37;;;;;;;9.88;6.65;;;7.20;90.40;;;;;;5053561;28;20051;-71
2021/12/26 06:43:02;;;;;;;12.77;6.82;;;7.20;90.50;;;;;;5053509;28;20097;-71
2021/12/26 06:45:28;;;;;;;11.48;7.25;;;7.20;90.50;;;;;;5053581;28;20021;-71
2021/12/26 06:47:56;;;;;;;12.98;7.90;;;7.10;90.70;;;;;;5053341;28;20036;-71
2021/12/26 06:50:21;;;;;;;10.85;7.60;;;7.20;90.90;;;;;;5053469;28;20036;-71
2021/12/26 06:52:48;;;;;;;11.75;7.95;;;7.20;90.90;;;;;;5053422;28;20037;-71
2021/12/26 06:55:14;;;;;;;11.73;7.45;;;7.30;90.80;;;;;;5053402;28;20021;-72
2021/12/26 06:57:40;;;;;;;12.15;7.40;;;7.30;90.60;;;;;;5035475;28;20063;-72
2021/12/26 07:00:09;;;;;;;12.40;8.00;;;7.30;90.50;;;;;;5053260;28;20037;-72
2021/12/26 07:02:35;;;;;;;14.73;8.88;;;7.30;90.40;;;;;;5035793;28;20097;-72
2021/12/26 07:05:01;;;;;;;14.70;8.88;;;7.30;90.40;;;;;;5053079;28;20052;-71
2021/12/26 07:07:27;;;;;;;12.90;8.25;;;7.30;90.30;;;;;;5053362;28;20470;-72
2021/12/26 07:09:52;;;;;;;12.77;8.60;;;7.30;90.30;;;;;;5053143;28;20039;-71
2021/12/26 07:12:18;;;;;;;14.20;8.85;;;7.20;90.20;;;;;;5053087;28;20412;-72
2021/12/26 07:14:44;;;;;;;14.52;8.93;;;7.30;90.40;;;;;;5052992;28;20033;-71
2021/12/26 07:17:10;;;;;;;14.23;9.35;;;7.30;90.30;;;;;;5052594;28;20385;-72
2021/12/26 07:19:37;;;;;;;12.27;8.38;;;7.30;90.30;;;;;;5052909;28;20021;-72
2021/12/26 07:22:03;;;;;;;11.20;7.60;;;7.30;90.30;;;;;;5052925;28;20029;-72
2021/12/26 07:24:29;;;;;;;9.32;6.22;;;7.30;90.10;;;;;;5053027;28;20024;-71
2021/12/26 07:26:54;;;;;;;8.30;5.40;;;7.30;89.60;;;;;;5052834;28;20025;-72
2021/12/26 07:29:20;;;;;;;8.93;5.90;;;7.30;89.40;;;;;;5052962;28;20119;-73
2021/12/26 07:31:45;;;;;;;9.65;6.15;;;7.20;89.10;;;;;;5052866;28;20029;-72
2021/12/26 07:34:11;;;;;;;7.63;5.55;;;7.20;89.20;;;;;;5052693;28;20063;-71
2021/12/26 07:36:37;;;;;;;4.45;3.20;;;7.20;89.40;;;;;;5052786;28;20539;-73
2021/12/26 07:39:04;;;;;;;3.38;2.13;;;7.20;88.90;;;;;;5052722;28;20504;-73
2021/12/26 07:41:30;;;;;;;2.42;1.95;;;7.10;88.70;;;;;;5052612;28;20385;-73
2021/12/26 07:43:55;;;;;;;2.33;2.00;;;7.20;89.30;;;;;;5052563;28;20021;-71
2021/12/26 07:46:22;;;;;;;2.45;1.75;;;7.30;88.50;;;;;;5053331;28;20106;-75
2021/12/26 07:48:47;;;;;;;1.98;1.50;;;7.20;87.80;;;;;;5056502;28;20063;-70
2021/12/26 07:51:15;;;;;;;2.60;1.80;;;7.20;87.50;;;;;;5056683;28;20413;-71
2021/12/26 07:53:40;;;;;;;2.67;2.00;;;7.20;87.40;;;;;;5056609;28;20521;-71
2021/12/26 07:56:06;;;;;;;2.17;1.85;;;7.10;87.60;;;;;;5038667;28;20067;-71
2021/12/26 07:58:32;;;;;;;2.88;2.13;;;7.20;87.80;;;;;;5056209;28;20033;-71
2021/12/26 08:00:57;;;;;;;2.38;1.80;;;7.10;87.90;;;;;;5056484;28;20040;-71
2021/12/26 08:03:23;;;;;;;2.38;1.92;;;7.20;88.00;;;;;;5056545;28;20028;-71
2021/12/26 08:05:48;;;;;;;1.60;1.40;;;7.10;87.80;;;;;;5056312;28;20078;-71
2021/12/26 08:08:14;;;;;;;2.83;2.05;;;7.10;88.00;;;;;;5056313;28;20041;-71
2021/12/26 08:10:40;;;;;;;4.47;1.80;;;7.10;87.90;;;;;;5056251;28;20033;-71
2021/12/26 08:13:05;;;;;;;1.70;1.40;;;7.10;88.20;;;;;;5056344;28;20428;-71
2021/12/26 08:15:31;;;;;;;2.65;1.70;;;7.10;88.20;;;;;;5056253;28;20032;-71
2021/12/26 08:17:57;;;;;;;5.13;2.67;;;7.20;88.30;;;;;;5056248;28;20036;-72
2021/12/26 08:20:23;;;;;;;6.05;2.25;;;7.20;88.00;;;;;;5056177;28;20017;-72
2021/12/26 08:22:48;;;;;;;3.28;1.63;;;7.20;87.80;;;;;;5056140;28;20032;-73
2021/12/26 08:25:14;;;;;;;2.25;1.60;;;7.10;87.60;;;;;;5056034;28;20396;-72
2021/12/26 08:27:40;;;;;;;2.05;1.80;;;7.20;87.60;;;;;;5056017;28;20560;-72
2021/12/26 08:30:07;;;;;;;1.73;1.48;;;7.20;87.60;;;;;;5055999;28;20025;-71
2021/12/26 08:32:35;;;;;;;2.60;1.70;;;7.20;87.50;;;;;;5055967;28;20057;-72
2021/12/26 08:35:03;;;;;;;1.45;1.25;;;7.20;87.50;;;;;;5055590;28;20489;-72
2021/12/26 08:37:30;;;;;;;1.63;1.52;;;7.20;87.20;;;;;;5055885;28;20143;-72
2021/12/26 08:39:56;;;;;;;1.38;1.27;;;7.20;87.20;;;;;;5037819;28;20025;-73
2021/12/26 08:42:22;;;;;;;2.85;1.60;;;7.20;88.20;;;;;;5055497;28;20039;-73
2021/12/26 08:44:50;;;;;;;2.63;1.67;;;7.20;87.20;;;;;;5055584;28;20466;-73
2021/12/26 08:47:16;;;;;;;2.97;2.00;;;7.30;87.20;;;;;;5055669;28;20041;-72
2021/12/26 08:49:42;;;;;;;2.25;1.60;;;7.30;87.10;;;;;;5055342;28;20059;-73
2021/12/26 08:52:08;;;;;;;1.10;1.00;;;7.30;86.80;;;;;;5055295;28;20056;-72
2021/12/26 08:54:35;;;;;;;1.30;1.02;;;7.40;86.80;;;;;;5055342;28;20032;-72
2021/12/26 08:57:02;;;;;;;1.92;1.42;;;7.40;86.40;;;;;;5055382;28;20055;-72
2021/12/26 08:59:30;;;;;;;2.38;1.73;;;7.50;86.60;;;;;;5054751;28;20178;-72
2021/12/26 09:01:58;;;;;;;2.55;1.50;;;7.60;86.60;;;;;;5055296;28;20074;-73
2021/12/26 09:04:23;;;;;;;1.88;1.50;;;7.70;86.90;;;;;;5055303;28;20056;-72
2021/12/26 09:06:49;;;;;;;6.43;3.50;;;7.80;86.70;;;;;;5055125;28;20114;-72
2021/12/26 09:09:15;;;;;;;5.80;3.72;;;7.90;86.50;;;;;;5054762;28;20032;-72
2021/12/26 09:11:40;;;;;;;5.70;3.10;;;8.00;86.30;;;;;;5055110;28;20029;-71
2021/12/26 09:14:06;;;;;;;4.32;2.83;;;8.10;86.20;;;;;;5055085;28;20021;-72
2021/12/26 09:16:34;;;;;;;3.70;2.33;;;8.20;86.30;;;;;;5055137;28;20451;-73
2021/12/26 09:19:01;;;;;;;2.35;1.73;;;8.20;86.10;;;;;;5055094;28;20052;-73
2021/12/26 09:21:27;;;;;;;2.05;1.58;;;8.40;86.40;;;;;;5054755;28;20031;-73
2021/12/26 09:23:53;;;;;;;2.00;1.50;;;8.50;85.20;;;;;;5054770;28;20381;-73
2021/12/26 09:26:18;;;;;;;2.05;1.30;;;8.60;84.70;;;;;;5054873;28;20025;-73
2021/12/26 09:28:44;;;;;;;2.80;1.98;;;8.70;84.40;;;;;;5054513;28;20048;-73
2021/12/26 09:31:10;;;;;;;6.28;4.38;;;8.70;84.40;;;;;;5054840;28;20021;-73
2021/12/26 09:33:35;;;;;;;6.28;4.85;;;8.60;84.50;;;;;;5054578;28;20072;-75
2021/12/26 09:36:01;;;;;;;4.15;3.47;;;8.60;84.60;;;;;;5054666;28;20096;-73
2021/12/26 09:38:28;;;;;;;4.45;3.08;;;8.70;85.00;;;;;;5054541;28;20025;-72
2021/12/26 09:40:54;;;;;;;2.78;2.28;;;8.70;85.00;;;;;;5054557;28;20101;-72
2021/12/26 09:43:20;;;;;;;3.30;2.40;;;8.70;84.90;;;;;;5054578;28;20166;-73
2021/12/26 09:45:45;;;;;;;2.13;1.90;;;8.80;85.00;;;;;;5054572;28;20100;-72
2021/12/26 09:48:11;;;;;;;4.22;2.22;;;8.90;85.00;;;;;;5054452;28;20028;-73
2021/12/26 09:50:36;;;;;;;4.55;2.08;;;9.00;84.80;;;;;;5036315;28;20501;-72
2021/12/26 09:53:02;;;;;;;1.98;1.77;;;9.10;84.50;;;;;;5054114;28;20063;-72
2021/12/26 09:55:29;;;;;;;2.75;1.75;;;9.20;84.40;;;;;;5054241;28;20064;-72
2021/12/26 09:57:55;;;;;;;8.38;2.03;;;9.20;84.00;;;;;;5054249;28;20028;-73
2021/12/26 10:00:28;;;;;;;6.03;1.60;;;9.50;84.90;;;;;;5054222;28;20104;-73
2021/12/26 10:03:18;;;;;;;1.25;1.10;;;9.80;83.50;;;;;;5054119;28;20025;-71
2021/12/26 10:06:18;;;;;;;0.80;0.65;;;10.00;81.20;;;;;;5054113;28;20032;-72
2021/12/26 10:08:54;;;;;;;1.15;0.88;;;10.10;80.40;;;;;;5017374;28;20545;-72
2021/12/26 10:11:22;;;;;;;0.80;0.80;;;10.00;80.20;;;;;;5035245;28;20389;-72
2021/12/26 10:13:50;;;;;;;1.10;1.00;;;10.00;80.50;;;;;;5053701;28;20056;-72
2021/12/26 10:16:18;;;;;;;2.05;0.95;;;10.00;80.10;;;;;;5054332;28;20096;-72
2021/12/26 10:18:46;;;;;;;1.65;1.13;;;10.10;80.10;;;;;;5054627;28;20096;-72
2021/12/26 10:21:40;;;;;;;0.80;0.80;;;10.30;80.60;;;;;;5054008;28;20021;-72
2021/12/26 10:24:25;;;;;;;1.50;1.23;;;10.50;78.90;;;;;;5053782;28;20050;-72
2021/12/26 10:26:54;;;;;;;1.10;1.00;;;10.70;78.10;;;;;;5053632;28;20094;-72
2021/12/26 10:29:51;;;;;;;1.00;0.90;;;10.80;77.50;;;;;;5053710;28;20094;-72
2021/12/26 10:32:22;;;;;;;1.88;1.50;;;10.90;77.40;;;;;;5040280;28;20056;-72
2021/12/26 10:35:08;;;;;;;0.95;0.95;;;10.80;77.40;;;;;;5053436;28;20051;-72
2021/12/26 10:37:46;;;;;;;1.48;1.00;;;10.80;77.50;;;;;;5035228;28;20083;-73
2021/12/26 10:40:24;;;;;;;1.95;0.88;;;10.70;77.50;;;;;;5055270;28;20119;-72
2021/12/26 10:42:53;;;;;;;1.05;0.80;;;10.60;77.80;;;;;;5056045;28;20518;-73
2021/12/26 10:45:21;;;;;;;2.30;1.13;;;10.50;78.00;;;;;;5039912;28;20071;-72
2021/12/26 10:47:54;;;;;;;3.35;1.60;;;10.40;77.40;;;;;;5062915;28;20048;-72
2021/12/26 10:50:23;;;;;;;2.08;1.42;;;10.50;77.70;;;;;;5060457;28;20470;-72
2021/12/26 10:52:53;;;;;;;1.08;0.93;;;10.50;77.60;;;;;;5061522;28;20056;-72
2021/12/26 10:55:55;;;;;;;1.50;1.02;;;10.60;77.40;;;;;;5042071;28;20021;-72
2021/12/26 10:58:23;;;;;;;0.90;0.60;;;10.80;77.60;;;;;;5031941;28;20076;-71
2021/12/26 11:00:55;;;;;;;1.25;0.77;;;11.00;74.20;;;;;;5060067;28;20028;-72
2021/12/26 11:03:27;;;;;;;0.90;0.80;;;11.00;73.90;;;;;;5061284;28;20028;-71
2021/12/26 11:05:59;;;;;;;0.77;0.77;;;11.70;73.00;;;;;;5058006;28;20021;-72
2021/12/26 11:08:29;;;;;;;1.77;0.93;;;12.40;69.50;;;;;;5053071;28;20489;-72
2021/12/26 11:10:56;;;;;;;0.52;0.50;;;12.90;67.90;;;;;;5035061;28;20437;-72
2021/12/26 11:13:22;;;;;;;0.68;0.60;;;13.40;64.90;;;;;;5053074;28;20447;-73
2021/12/26 11:15:49;;;;;;;0.40;0.30;;;14.40;61.80;;;;;;5053064;28;20021;-73
2021/12/26 11:18:17;;;;;;;0.88;0.50;;;15.70;54.30;;;;;;5052754;28;20037;-73
2021/12/26 11:20:46;;;;;;;0.40;0.30;;;16.90;50.80;;;;;;5052853;28;20025;-73
2021/12/26 11:23:19;;;;;;;1.42;0.80;;;16.90;48.40;;;;;;5052641;28;20025;-73
2021/12/26 11:25:52;;;;;;;0.40;0.40;;;16.20;48.40;;;;;;5052746;28;20036;-72
2021/12/26 11:28:26;;;;;;;0.50;0.50;;;15.40;50.40;;;;;;5052734;28;20037;-73
2021/12/26 11:30:54;;;;;;;1.02;0.60;;;14.50;52.70;;;;;;5034941;28;20564;-73
2021/12/26 11:33:20;;;;;;;0.60;0.60;;;13.80;55.60;;;;;;5052215;28;20035;-72
2021/12/26 11:35:48;;;;;;;0.95;0.75;;;13.40;58.00;;;;;;5034641;28;20095;-72
2021/12/26 11:38:18;;;;;;;0.57;0.50;;;13.20;59.70;;;;;;5052674;28;20254;-73
2021/12/26 11:40:45;;;;;;;0.32;0.32;;;14.10;59.60;;;;;;5052594;28;20070;-73
2021/12/26 11:43:22;;;;;;;0.50;0.47;;;15.70;52.20;;;;;;5052478;28;20037;-72
2021/12/26 11:46:00;;;;;;;0.40;0.40;;;15.70;50.30;;;;;;5052576;28;20543;-72
2021/12/26 11:48:50;;;;;;;1.02;0.60;;;16.10;48.60;;;;;;5067981;28;20041;-73
2021/12/26 11:51:54;;;;;;;1.15;0.40;;;15.70;49.10;;;;;;5052607;28;20018;-72
2021/12/26 11:54:38;;;;;;;1.05;0.80;;;14.90;52.00;;;;;;5052438;28;20489;-72
2021/12/26 11:57:16;;;;;;;0.70;0.50;;;13.90;54.80;;;;;;5052510;28;20482;-72
2021/12/26 11:59:50;;;;;;;0.77;0.75;;;13.10;58.40;;;;;;5052392;28;20091;-71
2021/12/26 12:03:04;;;;;;;0.70;0.63;;;12.50;60.50;;;;;;5052449;28;20504;-72
2021/12/26 12:05:38;;;;;;;0.30;0.30;;;11.90;62.20;;;;;;5049276;28;20044;-72
2021/12/26 12:08:12;;;;;;;0.98;0.70;;;11.20;65.30;;;;;;5052358;28;20440;-71
2021/12/26 12:10:54;;;;;;;0.40;0.40;;;10.80;67.90;;;;;;5052196;28;20478;-71
2021/12/26 12:13:22;;;;;;;1.27;0.40;;;10.60;68.80;;;;;;5052418;28;20031;-71
2021/12/26 12:15:51;;;;;;;0.93;0.60;;;10.50;69.70;;;;;;5052287;28;20432;-71
2021/12/26 12:18:52;;;;;;;0.75;0.30;;;10.50;70.30;;;;;;5052131;28;20028;-72
2021/12/26 12:21:20;;;;;;;0.80;0.73;;;10.50;71.00;;;;;;5055903;28;20032;-72
2021/12/26 12:24:11;;;;;;;2.60;1.67;;;10.50;71.20;;;;;;5052119;28;20083;-72
2021/12/26 12:26:56;;;;;;;1.02;0.70;;;10.50;71.90;;;;;;5051979;28;20029;-70
2021/12/26 12:29:21;;;;;;;0.85;0.60;;;10.60;71.70;;;;;;5051741;28;20413;-72
2021/12/26 12:31:47;;;;;;;0.60;0.60;;;10.60;71.30;;;;;;5051587;28;20021;-70
2021/12/26 12:34:13;;;;;;;0.50;0.40;;;10.70;71.50;;;;;;5035764;28;20049;-70
2021/12/26 12:36:45;;;;;;;0.50;0.50;;;10.60;70.60;;;;;;5055665;28;20020;-70
2021/12/26 12:39:23;;;;;;;0.50;0.50;;;10.70;71.10;;;;;;5055540;28;20397;-70
2021/12/26 12:41:55;;;;;;;0.80;0.70;;;11.00;71.30;;;;;;5055499;28;20029;-72
2021/12/26 12:44:28;;;;;;;3.08;0.98;;;11.20;70.30;;;;;;5055605;28;20048;-71
2021/12/26 12:47:16;;;;;;;3.17;1.48;;;11.20;70.00;;;;;;5055301;28;20029;-71
2021/12/26 12:49:54;;;;;;;1.42;0.95;;;11.10;69.60;;;;;;5054779;28;20544;-71
2021/12/26 12:52:46;;;;;;;1.45;0.80;;;10.90;70.20;;;;;;5037331;28;20052;-73
2021/12/26 12:55:38;;;;;;;0.85;0.68;;;10.70;71.10;;;;;;5055512;28;20252;-71
2021/12/26 12:58:22;;;;;;;1.45;1.05;;;10.50;71.80;;;;;;5055300;28;20488;-71
2021/12/26 13:00:49;;;;;;;1.25;1.10;;;10.30;72.50;;;;;;5055026;28;20108;-71
2021/12/26 13:03:17;;;;;;;1.00;0.82;;;10.10;74.20;;;;;;5055002;28;20025;-71